Time;durP1;ratioP1;P1;durP2;ratioP2;P2;SDS_P1;SDS_P2;PMS_P1;PMS_P2;Temp;Humidity;BMP_temperature;BMP_pressure;BME280_temperature;BME280_humidity;BME280_pressure;Samples;Min_cycle;Max_cycle;Signal;HPM_P1;HPM_P2
2021/07/16 00:00:13;;;;;;;3.47;2.70;;;16.00;99.90;;;;;;5111121;28;20448;-72
2021/07/16 00:02:41;;;;;;;2.97;2.47;;;15.90;99.90;;;;;;5107615;28;20535;-72
2021/07/16 00:05:10;;;;;;;2.57;2.37;;;15.80;99.90;;;;;;5091554;28;20480;-72
2021/07/16 00:07:38;;;;;;;4.50;3.10;;;15.70;99.90;;;;;;5090696;28;20519;-72
2021/07/16 00:10:08;;;;;;;3.70;2.67;;;15.70;99.90;;;;;;5101672;28;20475;-73
2021/07/16 00:12:35;;;;;;;3.73;2.30;;;15.60;99.90;;;;;;5111338;28;20876;-72
2021/07/16 00:15:04;;;;;;;2.53;2.33;;;15.60;99.90;;;;;;5110841;28;20522;-72
2021/07/16 00:17:31;;;;;;;2.40;2.20;;;15.50;99.90;;;;;;5111438;28;20497;-73
2021/07/16 00:19:58;;;;;;;3.20;2.70;;;15.50;99.90;;;;;;5111081;28;20531;-72
2021/07/16 00:22:24;;;;;;;3.73;2.50;;;15.70;99.90;;;;;;5111383;28;20440;-72
2021/07/16 00:24:51;;;;;;;2.77;2.50;;;15.80;99.90;;;;;;5110824;28;20471;-72
2021/07/16 00:27:19;;;;;;;5.47;3.03;;;15.80;99.90;;;;;;5110938;28;20471;-72
2021/07/16 00:29:47;;;;;;;2.97;2.67;;;15.90;99.90;;;;;;5111212;28;20467;-70
2021/07/16 00:32:14;;;;;;;3.53;2.93;;;15.70;99.90;;;;;;5111619;28;20447;-72
2021/07/16 00:34:40;;;;;;;2.97;2.67;;;15.60;99.90;;;;;;5110689;28;20450;-72
2021/07/16 00:37:07;;;;;;;3.27;2.53;;;15.80;99.90;;;;;;5111497;28;20479;-72
2021/07/16 00:39:35;;;;;;;3.10;2.53;;;15.90;99.90;;;;;;5115312;28;20530;-72
2021/07/16 00:42:01;;;;;;;3.60;2.57;;;15.80;99.90;;;;;;5114451;28;20514;-72
2021/07/16 00:44:33;;;;;;;7.33;3.03;;;15.70;99.90;;;;;;5115215;28;20467;-72
2021/07/16 00:47:00;;;;;;;2.40;2.20;;;15.50;99.90;;;;;;5114494;28;20487;-72
2021/07/16 00:49:28;;;;;;;3.90;3.17;;;15.60;99.90;;;;;;5115121;28;20461;-72
2021/07/16 00:51:55;;;;;;;2.70;2.50;;;15.50;99.90;;;;;;5114267;28;20943;-72
2021/07/16 00:54:22;;;;;;;2.13;1.93;;;15.60;99.90;;;;;;5114947;28;20939;-73
2021/07/16 00:56:49;;;;;;;3.37;3.07;;;15.60;99.90;;;;;;5113759;28;20518;-71
2021/07/16 00:59:17;;;;;;;3.40;3.03;;;15.30;99.90;;;;;;5114063;28;20447;-72
2021/07/16 01:01:48;;;;;;;2.13;1.97;;;15.30;99.90;;;;;;5114543;28;20784;-73
2021/07/16 01:04:15;;;;;;;2.37;2.03;;;15.30;99.90;;;;;;5114660;28;20879;-73
2021/07/16 01:06:42;;;;;;;2.73;2.53;;;15.30;99.90;;;;;;5114038;28;20558;-72
2021/07/16 01:09:09;;;;;;;3.30;3.00;;;15.30;99.90;;;;;;5118534;28;21061;-72
2021/07/16 01:11:36;;;;;;;3.00;2.70;;;15.30;99.90;;;;;;5117707;28;20955;-73
2021/07/16 01:14:03;;;;;;;3.63;2.63;;;15.30;99.90;;;;;;5114755;28;20454;-72
2021/07/16 01:16:30;;;;;;;3.20;2.80;;;15.20;99.90;;;;;;5114283;28;20944;-72
2021/07/16 01:18:59;;;;;;;3.60;2.87;;;15.20;99.90;;;;;;5115001;28;20523;-73
2021/07/16 01:21:28;;;;;;;4.00;2.43;;;15.10;99.90;;;;;;5117201;28;20539;-73
2021/07/16 01:23:57;;;;;;;4.50;2.33;;;15.10;99.90;;;;;;5115242;28;20985;-74
2021/07/16 01:26:25;;;;;;;2.50;2.30;;;15.30;99.90;;;;;;5114109;28;20507;-72
2021/07/16 01:28:52;;;;;;;4.67;3.70;;;15.10;99.90;;;;;;5113630;28;20439;-71
2021/07/16 01:31:19;;;;;;;2.50;2.30;;;15.10;99.90;;;;;;5113949;28;20505;-72
2021/07/16 01:33:46;;;;;;;5.40;2.83;;;15.10;99.90;;;;;;5114101;28;20436;-72
2021/07/16 01:36:13;;;;;;;2.73;2.50;;;15.10;99.90;;;;;;5113236;27;20530;-71
2021/07/16 01:38:40;;;;;;;2.63;2.43;;;14.90;99.90;;;;;;5114461;28;20452;-72
2021/07/16 01:41:08;;;;;;;3.30;2.93;;;14.90;99.90;;;;;;5113410;28;20783;-72
2021/07/16 01:43:35;;;;;;;3.73;2.70;;;15.00;99.90;;;;;;5114079;28;20535;-72
2021/07/16 01:46:02;;;;;;;3.27;2.97;;;15.20;99.90;;;;;;5112938;28;20471;-71
2021/07/16 01:48:30;;;;;;;4.40;2.67;;;15.20;99.90;;;;;;5113848;28;20527;-72
2021/07/16 01:50:57;;;;;;;6.30;2.97;;;15.30;99.90;;;;;;5113519;28;20440;-72
2021/07/16 01:53:24;;;;;;;2.50;2.30;;;15.40;99.90;;;;;;5113872;28;20584;-72
2021/07/16 01:55:51;;;;;;;3.37;2.20;;;15.60;99.90;;;;;;5113584;28;20439;-71
2021/07/16 01:58:20;;;;;;;3.80;3.13;;;15.50;99.90;;;;;;5113170;28;20454;-72
2021/07/16 02:00:48;;;;;;;2.50;2.20;;;15.30;99.90;;;;;;5113382;28;20539;-72
2021/07/16 02:03:17;;;;;;;2.60;2.40;;;15.10;99.90;;;;;;5112923;28;20758;-72
2021/07/16 02:05:45;;;;;;;3.80;2.30;;;15.10;99.90;;;;;;5113466;28;20484;-71
2021/07/16 02:08:15;;;;;;;3.07;1.90;;;15.00;99.90;;;;;;5112961;28;20443;-72
2021/07/16 02:10:43;;;;;;;2.83;2.47;;;14.90;99.90;;;;;;5113511;28;20527;-72
2021/07/16 02:13:10;;;;;;;3.80;2.47;;;14.90;99.90;;;;;;5112588;28;20881;-72
2021/07/16 02:15:40;;;;;;;3.93;2.70;;;15.00;99.90;;;;;;5113627;28;20488;-72
2021/07/16 02:18:07;;;;;;;3.10;2.60;;;15.20;99.90;;;;;;5112942;28;20442;-72
2021/07/16 02:20:37;;;;;;;2.83;2.63;;;15.20;99.90;;;;;;5113550;28;20446;-72
2021/07/16 02:23:06;;;;;;;2.80;2.60;;;15.00;99.90;;;;;;5112960;28;20440;-71
2021/07/16 02:25:33;;;;;;;2.97;2.70;;;14.90;99.90;;;;;;5112931;28;20440;-72
2021/07/16 02:28:02;;;;;;;3.40;3.10;;;14.90;99.90;;;;;;5112235;28;20959;-72
2021/07/16 02:30:29;;;;;;;7.10;2.80;;;14.90;99.90;;;;;;5113242;28;20454;-72
2021/07/16 02:32:58;;;;;;;6.97;2.93;;;14.80;99.90;;;;;;5112100;28;20546;-73
2021/07/16 02:35:26;;;;;;;3.80;3.03;;;15.00;99.90;;;;;;5112886;28;20448;-72
2021/07/16 02:37:53;;;;;;;3.40;3.10;;;15.00;99.90;;;;;;5113033;28;20439;-73
2021/07/16 02:40:20;;;;;;;3.50;2.73;;;14.90;99.90;;;;;;5113029;28;20466;-73
2021/07/16 02:42:48;;;;;;;3.47;2.87;;;15.00;99.90;;;;;;5112885;28;20776;-73
2021/07/16 02:45:18;;;;;;;3.20;2.90;;;14.80;99.90;;;;;;5111983;28;20878;-72
2021/07/16 02:47:44;;;;;;;4.50;3.40;;;14.80;99.90;;;;;;5112684;28;20911;-73
2021/07/16 02:50:15;;;;;;;3.00;2.70;;;14.90;99.90;;;;;;5111804;28;20947;-73
2021/07/16 02:52:43;;;;;;;3.70;3.37;;;14.80;99.90;;;;;;5112232;28;20849;-73
2021/07/16 02:55:11;;;;;;;3.50;3.10;;;14.80;99.90;;;;;;5107854;28;20845;-72
2021/07/16 02:57:40;;;;;;;4.27;3.13;;;14.80;99.90;;;;;;5112278;28;20538;-72
2021/07/16 03:00:10;;;;;;;3.47;2.83;;;14.80;99.90;;;;;;5111822;28;20440;-72
2021/07/16 03:02:41;;;;;;;3.60;3.30;;;14.90;99.90;;;;;;5112538;28;20467;-72
2021/07/16 03:05:09;;;;;;;3.83;3.10;;;14.90;99.90;;;;;;5111699;28;20966;-72
2021/07/16 03:07:37;;;;;;;3.23;2.93;;;14.90;99.90;;;;;;5112584;28;20475;-73
2021/07/16 03:10:07;;;;;;;3.40;3.10;;;14.90;99.90;;;;;;5111944;28;20447;-72
2021/07/16 03:12:33;;;;;;;4.07;3.30;;;15.00;99.90;;;;;;5094017;28;20874;-72
2021/07/16 03:15:00;;;;;;;4.30;3.10;;;14.90;99.90;;;;;;5111641;28;20997;-73
2021/07/16 03:17:27;;;;;;;3.50;3.20;;;15.00;99.90;;;;;;5112158;28;20484;-73
2021/07/16 03:19:54;;;;;;;3.70;3.40;;;14.90;99.90;;;;;;5112062;28;20446;-72
2021/07/16 03:22:21;;;;;;;3.70;2.73;;;14.90;99.90;;;;;;5092802;28;20539;-72
2021/07/16 03:24:49;;;;;;;2.70;2.50;;;14.80;99.90;;;;;;5093413;28;20447;-72
2021/07/16 03:27:16;;;;;;;3.60;3.30;;;14.90;99.90;;;;;;5091245;28;20949;-72
2021/07/16 03:29:43;;;;;;;3.27;2.97;;;15.00;99.90;;;;;;5108649;28;20528;-72
2021/07/16 03:32:10;;;;;;;3.87;2.80;;;15.00;99.90;;;;;;5111354;28;20459;-72
2021/07/16 03:34:37;;;;;;;3.13;2.80;;;14.90;99.90;;;;;;5111634;28;20914;-73
2021/07/16 03:37:04;;;;;;;4.40;3.50;;;14.90;99.90;;;;;;5111091;28;20500;-72
2021/07/16 03:39:31;;;;;;;2.93;2.50;;;15.20;99.90;;;;;;5112151;28;20607;-73
2021/07/16 03:41:59;;;;;;;3.30;3.00;;;15.40;99.90;;;;;;5111360;28;20450;-71
2021/07/16 03:44:26;;;;;;;4.60;3.70;;;15.50;99.90;;;;;;5112074;28;20483;-73
2021/07/16 03:46:53;;;;;;;4.60;3.30;;;15.60;99.90;;;;;;5111484;28;21061;-72
2021/07/16 03:49:20;;;;;;;3.40;2.93;;;15.70;99.90;;;;;;5111275;28;20599;-72
2021/07/16 03:51:47;;;;;;;3.70;3.40;;;15.80;99.90;;;;;;5111575;28;20443;-73
2021/07/16 03:54:14;;;;;;;8.50;3.60;;;15.80;99.90;;;;;;5110524;28;20468;-72
2021/07/16 03:56:41;;;;;;;4.13;3.43;;;15.80;99.90;;;;;;5111725;28;20518;-72
2021/07/16 03:59:09;;;;;;;5.50;4.40;;;15.80;99.90;;;;;;5111139;28;20773;-73
2021/07/16 04:01:36;;;;;;;4.17;3.80;;;15.60;99.90;;;;;;5107275;28;20467;-73
2021/07/16 04:04:03;;;;;;;3.60;3.30;;;15.50;99.90;;;;;;5110003;28;20471;-72
2021/07/16 04:06:31;;;;;;;5.40;3.00;;;15.40;99.90;;;;;;5108927;28;20464;-74
2021/07/16 04:09:10;;;;;;;3.20;2.43;;;15.30;99.90;;;;;;5110613;28;20488;-73
2021/07/16 04:11:37;;;;;;;3.30;2.67;;;15.40;99.90;;;;;;5110686;28;20446;-75
2021/07/16 04:14:04;;;;;;;4.37;3.10;;;15.50;99.90;;;;;;5114863;28;21028;-73
2021/07/16 04:16:33;;;;;;;3.20;2.90;;;15.50;99.90;;;;;;5115843;28;20446;-73
2021/07/16 04:19:00;;;;;;;3.10;2.70;;;15.50;99.90;;;;;;5115112;28;20428;-71
2021/07/16 04:21:27;;;;;;;3.13;2.83;;;15.50;99.90;;;;;;5115486;28;20458;-75
2021/07/16 04:23:54;;;;;;;3.20;2.90;;;15.60;99.90;;;;;;5115874;28;20506;-76
2021/07/16 04:26:21;;;;;;;11.47;10.27;;;15.40;99.90;;;;;;5115081;28;20481;-75
2021/07/16 04:28:47;;;;;;;4.23;3.87;;;15.40;99.90;;;;;;5115772;28;20446;-75
2021/07/16 04:31:16;;;;;;;3.70;3.17;;;15.50;99.90;;;;;;5113988;28;20538;-72
2021/07/16 04:33:45;;;;;;;4.47;2.90;;;15.40;99.90;;;;;;5115077;28;20446;-72
2021/07/16 04:36:11;;;;;;;3.53;3.20;;;15.50;99.90;;;;;;5114810;28;20467;-72
2021/07/16 04:38:40;;;;;;;4.80;3.73;;;15.50;99.90;;;;;;5115390;28;20438;-72
2021/07/16 04:41:07;;;;;;;4.17;3.20;;;15.50;99.90;;;;;;5112465;28;20447;-76
2021/07/16 04:43:33;;;;;;;6.37;3.57;;;15.60;99.90;;;;;;5115698;28;20855;-75
2021/07/16 04:46:01;;;;;;;3.60;3.30;;;15.60;99.90;;;;;;5115299;28;20766;-76
2021/07/16 04:48:27;;;;;;;6.27;3.33;;;15.70;99.90;;;;;;5115372;28;20555;-76
2021/07/16 04:50:56;;;;;;;3.30;3.00;;;15.80;99.90;;;;;;5115008;28;20450;-76
2021/07/16 04:53:22;;;;;;;5.47;3.00;;;15.70;99.90;;;;;;5114242;28;20440;-71
2021/07/16 04:55:49;;;;;;;3.53;3.23;;;15.90;99.90;;;;;;5114779;28;20432;-72
2021/07/16 04:58:16;;;;;;;3.70;3.40;;;15.90;99.90;;;;;;5114389;28;20448;-71
2021/07/16 05:00:43;;;;;;;6.00;3.20;;;16.00;99.90;;;;;;5114950;28;20443;-74
2021/07/16 05:03:10;;;;;;;5.00;3.40;;;15.90;99.90;;;;;;5114762;28;20443;-75
2021/07/16 05:05:37;;;;;;;5.93;3.33;;;16.00;99.90;;;;;;5114590;28;20518;-75
2021/07/16 05:08:06;;;;;;;5.53;3.50;;;16.20;99.90;;;;;;5114693;28;20843;-74
2021/07/16 05:10:33;;;;;;;3.30;3.00;;;16.20;99.90;;;;;;5114492;28;21015;-75
2021/07/16 05:12:59;;;;;;;4.17;3.70;;;16.30;99.90;;;;;;5114541;28;20938;-75
2021/07/16 05:15:26;;;;;;;4.20;3.07;;;16.40;99.90;;;;;;5114353;28;20470;-75
2021/07/16 05:17:53;;;;;;;3.27;2.97;;;16.50;99.90;;;;;;5114916;28;20557;-75
2021/07/16 05:20:20;;;;;;;5.33;3.13;;;16.60;99.90;;;;;;5113994;28;20528;-75
2021/07/16 05:22:48;;;;;;;3.93;3.53;;;16.50;99.90;;;;;;5114550;28;20432;-76
2021/07/16 05:25:16;;;;;;;3.67;3.37;;;16.70;99.90;;;;;;5114456;28;20516;-75
2021/07/16 05:27:43;;;;;;;4.90;3.30;;;17.10;99.90;;;;;;5114688;28;20975;-75
2021/07/16 05:30:11;;;;;;;4.30;3.90;;;17.40;99.90;;;;;;5113863;28;20531;-75
2021/07/16 05:32:38;;;;;;;5.37;4.77;;;17.50;99.90;;;;;;5114375;28;20880;-75
2021/07/16 05:35:06;;;;;;;5.60;5.10;;;17.60;99.90;;;;;;5113976;28;20447;-72
2021/07/16 05:37:33;;;;;;;6.87;5.37;;;17.50;99.90;;;;;;5114514;27;20951;-75
2021/07/16 05:40:01;;;;;;;7.33;6.10;;;17.50;99.90;;;;;;5114298;28;20979;-75
2021/07/16 05:42:29;;;;;;;10.00;7.87;;;17.40;99.90;;;;;;5113982;28;20527;-75
2021/07/16 05:44:56;;;;;;;8.07;7.27;;;17.20;99.90;;;;;;5114325;28;20434;-75
2021/07/16 05:47:23;;;;;;;6.50;5.90;;;17.40;99.90;;;;;;5113861;28;20490;-75
2021/07/16 05:49:53;;;;;;;6.67;6.07;;;17.40;99.90;;;;;;5114393;28;20659;-76
2021/07/16 05:52:19;;;;;;;7.23;6.63;;;17.70;99.90;;;;;;5113742;28;20938;-76
2021/07/16 05:54:46;;;;;;;7.50;6.27;;;17.90;99.90;;;;;;5114075;28;20536;-74
2021/07/16 05:57:13;;;;;;;9.33;7.30;;;18.00;99.90;;;;;;5113581;28;20465;-75
2021/07/16 05:59:41;;;;;;;10.30;7.07;;;17.70;99.90;;;;;;5114116;28;20427;-75
2021/07/16 06:02:09;;;;;;;8.27;7.40;;;17.60;99.90;;;;;;5113500;28;20534;-74
2021/07/16 06:04:36;;;;;;;8.30;6.97;;;17.50;99.90;;;;;;5113738;28;20996;-75
2021/07/16 06:07:03;;;;;;;7.10;6.40;;;17.60;99.90;;;;;;5114091;28;20471;-75
2021/07/16 06:09:31;;;;;;;9.90;8.10;;;17.70;99.90;;;;;;5113362;28;20904;-75
2021/07/16 06:11:58;;;;;;;8.40;7.43;;;17.70;99.90;;;;;;5113649;28;20514;-74
2021/07/16 06:14:25;;;;;;;8.10;7.30;;;17.70;99.90;;;;;;5113122;28;20431;-74
2021/07/16 06:16:53;;;;;;;7.07;6.37;;;17.80;99.90;;;;;;5113489;28;20523;-74
2021/07/16 06:19:20;;;;;;;8.60;7.63;;;17.80;99.90;;;;;;5112942;28;20431;-74
2021/07/16 06:21:47;;;;;;;8.70;7.23;;;17.80;99.90;;;;;;5113603;28;20467;-75
2021/07/16 06:24:14;;;;;;;9.87;6.97;;;17.80;99.90;;;;;;5113046;28;20840;-75
2021/07/16 06:26:41;;;;;;;9.60;7.87;;;18.00;99.90;;;;;;5113540;28;20511;-74
2021/07/16 06:29:08;;;;;;;7.37;6.50;;;18.00;99.90;;;;;;5112452;28;20440;-74
2021/07/16 06:31:35;;;;;;;10.60;7.90;;;17.90;99.90;;;;;;5113274;28;20935;-75
2021/07/16 06:34:04;;;;;;;14.30;10.07;;;17.90;99.90;;;;;;5113501;28;20440;-75
2021/07/16 06:36:31;;;;;;;8.93;7.30;;;18.00;99.90;;;;;;5112240;28;20819;-75
2021/07/16 06:38:58;;;;;;;9.13;7.73;;;17.90;99.90;;;;;;5113484;28;20463;-74
2021/07/16 06:41:25;;;;;;;7.27;6.57;;;17.90;99.90;;;;;;5112448;28;20443;-75
2021/07/16 06:43:52;;;;;;;8.23;7.43;;;18.00;99.90;;;;;;5112952;28;20506;-75
2021/07/16 06:46:18;;;;;;;7.37;6.57;;;18.00;99.90;;;;;;5112723;28;20518;-77
2021/07/16 06:48:46;;;;;;;7.73;6.33;;;18.00;99.90;;;;;;5112919;28;20502;-76
2021/07/16 06:51:15;;;;;;;8.40;7.70;;;18.00;99.90;;;;;;5112461;28;20509;-76
2021/07/16 06:53:42;;;;;;;8.23;7.40;;;18.10;99.90;;;;;;5113144;28;20460;-75
2021/07/16 06:56:09;;;;;;;7.87;7.13;;;18.00;99.90;;;;;;5112104;28;20450;-73
2021/07/16 06:58:36;;;;;;;7.77;6.90;;;18.00;99.90;;;;;;5112586;28;20447;-76
2021/07/16 07:01:03;;;;;;;10.30;7.27;;;18.10;99.90;;;;;;5112562;28;20550;-76
2021/07/16 07:03:29;;;;;;;7.73;6.80;;;18.10;99.90;;;;;;5111885;28;20955;-75
2021/07/16 07:05:57;;;;;;;7.00;6.17;;;18.20;99.90;;;;;;5113047;28;20478;-76
2021/07/16 07:08:25;;;;;;;7.33;6.63;;;18.20;99.90;;;;;;5112425;28;20579;-76
2021/07/16 07:10:52;;;;;;;10.70;7.30;;;18.20;99.90;;;;;;5112636;28;20447;-76
2021/07/16 07:13:19;;;;;;;7.37;6.67;;;18.40;99.90;;;;;;5111790;28;20522;-74
2021/07/16 07:15:46;;;;;;;7.33;6.63;;;18.50;99.90;;;;;;5112417;28;20448;-74
2021/07/16 07:18:12;;;;;;;7.93;7.00;;;18.60;99.90;;;;;;5111984;28;20443;-74
2021/07/16 07:20:39;;;;;;;9.83;6.80;;;18.60;99.90;;;;;;5112482;28;20436;-76
2021/07/16 07:23:06;;;;;;;8.03;6.40;;;18.70;99.90;;;;;;5112319;28;20531;-75
2021/07/16 07:25:35;;;;;;;6.97;6.37;;;18.60;99.90;;;;;;5111432;28;20535;-75
2021/07/16 07:28:02;;;;;;;8.30;7.50;;;18.70;99.90;;;;;;5112258;28;20528;-75
2021/07/16 07:30:29;;;;;;;8.63;7.13;;;18.50;99.90;;;;;;5111638;28;20444;-75
2021/07/16 07:32:57;;;;;;;7.23;6.63;;;18.60;99.90;;;;;;5112353;28;20448;-75
2021/07/16 07:35:24;;;;;;;7.17;6.57;;;18.70;99.90;;;;;;5111555;28;20479;-75
2021/07/16 07:37:51;;;;;;;6.60;6.00;;;18.40;99.90;;;;;;5112032;28;20443;-75
2021/07/16 07:40:19;;;;;;;6.57;5.97;;;18.60;99.90;;;;;;5111325;28;20538;-75
2021/07/16 07:42:47;;;;;;;7.93;7.13;;;18.70;99.90;;;;;;5112143;28;20442;-76
2021/07/16 07:45:14;;;;;;;5.93;5.33;;;18.90;99.90;;;;;;5111453;28;20455;-75
2021/07/16 07:47:42;;;;;;;7.57;6.80;;;19.00;99.90;;;;;;5111544;28;20558;-75
2021/07/16 07:50:13;;;;;;;8.13;7.30;;;19.20;99.90;;;;;;5112074;28;20435;-75
2021/07/16 07:52:40;;;;;;;12.17;6.70;;;19.30;99.90;;;;;;5111934;28;20460;-75
2021/07/16 07:55:08;;;;;;;8.43;6.10;;;19.20;99.90;;;;;;5112084;28;20895;-75
2021/07/16 07:57:35;;;;;;;6.50;5.60;;;19.20;99.90;;;;;;5111366;28;20446;-75
2021/07/16 08:00:04;;;;;;;6.23;5.67;;;19.30;99.90;;;;;;5112355;28;20530;-75
2021/07/16 08:02:31;;;;;;;5.40;4.97;;;19.40;99.90;;;;;;5111751;28;20539;-75
2021/07/16 08:04:58;;;;;;;6.63;6.10;;;19.40;99.90;;;;;;5111865;28;20464;-75
2021/07/16 08:07:25;;;;;;;6.30;5.77;;;19.60;99.90;;;;;;5111112;28;20475;-75
2021/07/16 08:09:52;;;;;;;5.17;4.67;;;19.60;99.90;;;;;;5111972;28;20526;-75
2021/07/16 08:12:19;;;;;;;5.73;5.23;;;19.70;91.70;;;;;;5111421;28;20445;-75
2021/07/16 08:14:46;;;;;;;5.87;5.33;;;20.00;1.00;;;;;;5111971;28;20449;-75
2021/07/16 08:17:14;;;;;;;5.37;4.83;;;19.70;51.30;;;;;;5111677;28;20479;-76
2021/07/16 08:19:41;;;;;;;5.13;4.50;;;19.90;1.00;;;;;;5111524;28;20530;-75
2021/07/16 08:22:08;;;;;;;5.33;4.83;;;19.80;1.00;;;;;;5111336;28;20444;-75
2021/07/16 08:24:35;;;;;;;5.23;4.77;;;19.80;1.00;;;;;;5110925;28;20958;-75
2021/07/16 08:27:02;;;;;;;4.87;4.43;;;19.70;1.00;;;;;;5111626;28;20449;-75
2021/07/16 08:29:28;;;;;;;4.97;4.57;;;19.80;1.00;;;;;;5110996;28;20479;-75
2021/07/16 08:31:55;;;;;;;6.00;5.50;;;19.90;1.00;;;;;;5111612;28;20454;-75
2021/07/16 08:34:23;;;;;;;5.60;5.10;;;19.90;99.90;;;;;;5110963;28;20443;-75
2021/07/16 08:36:50;;;;;;;5.13;4.73;;;20.00;1.00;;;;;;5111444;28;20440;-75
2021/07/16 08:39:17;;;;;;;5.20;4.70;;;20.10;1.00;;;;;;5110722;28;20525;-76
2021/07/16 08:41:44;;;;;;;4.80;4.40;;;20.20;99.90;;;;;;5111717;28;20436;-75
2021/07/16 08:44:11;;;;;;;5.40;4.90;;;20.00;99.90;;;;;;5111436;28;20443;-76
2021/07/16 08:46:38;;;;;;;4.43;4.03;;;20.10;99.90;;;;;;5110769;28;20554;-76
2021/07/16 08:49:05;;;;;;;5.20;4.80;;;20.20;1.00;;;;;;5111253;28;20562;-75
2021/07/16 08:51:34;;;;;;;5.10;4.40;;;20.30;99.90;;;;;;5110813;28;20451;-75
2021/07/16 08:54:00;;;;;;;4.47;4.17;;;20.10;99.90;;;;;;5111356;28;20440;-75
2021/07/16 08:56:31;;;;;;;5.30;4.90;;;20.00;34.20;;;;;;5110803;28;20442;-75
2021/07/16 08:58:58;;;;;;;6.00;5.40;;;20.10;99.90;;;;;;5113108;28;20467;-75
2021/07/16 09:01:25;;;;;;;4.70;4.30;;;19.90;1.00;;;;;;5114415;27;20483;-76
2021/07/16 09:04:00;;;;;;;5.20;4.70;;;20.10;1.00;;;;;;5115087;28;20834;-75
2021/07/16 09:06:51;;;;;;;4.70;4.00;;;20.10;99.90;;;;;;5114512;28;20466;-75
2021/07/16 09:09:19;;;;;;;4.43;4.00;;;20.30;99.90;;;;;;5114336;28;20583;-75
2021/07/16 09:11:47;;;;;;;4.23;3.90;;;20.50;1.00;;;;;;5115079;28;20475;-76
2021/07/16 09:14:24;;;;;;;4.60;4.20;;;20.70;1.00;;;;;;5114913;28;20530;-76
2021/07/16 09:16:56;;;;;;;5.47;4.97;;;20.50;99.90;;;;;;5115914;28;20510;-74
2021/07/16 09:19:29;;;;;;;5.60;4.63;;;20.70;1.00;;;;;;5114946;28;20958;-75
2021/07/16 09:22:02;;;;;;;5.20;4.70;;;20.80;1.00;;;;;;5115060;28;20444;-76
2021/07/16 09:24:29;;;;;;;4.30;4.00;;;20.90;99.90;;;;;;5114301;28;20793;-75
2021/07/16 09:26:56;;;;;;;4.20;3.80;;;21.00;1.00;;;;;;5114287;28;20487;-75
2021/07/16 09:29:29;;;;;;;3.90;3.60;;;21.10;89.60;;;;;;5113883;28;20479;-76
2021/07/16 09:32:03;;;;;;;4.03;3.60;;;21.20;99.90;;;;;;5114613;28;20843;-75
2021/07/16 09:34:30;;;;;;;3.77;3.40;;;21.20;99.90;;;;;;5114089;28;20522;-75
2021/07/16 09:36:58;;;;;;;3.90;3.60;;;21.20;1.00;;;;;;5114520;28;20450;-76
2021/07/16 09:39:27;;;;;;;4.30;3.90;;;21.40;1.00;;;;;;5113937;27;20443;-74
2021/07/16 09:41:56;;;;;;;4.60;4.30;;;21.30;1.00;;;;;;5114347;28;20448;-75
2021/07/16 09:44:32;;;;;;;4.33;3.80;;;21.30;1.00;;;;;;5113843;28;20450;-74
2021/07/16 09:47:13;;;;;;;4.47;4.07;;;21.20;1.00;;;;;;5114350;28;20518;-76
2021/07/16 09:49:42;;;;;;;5.47;4.50;;;21.20;1.00;;;;;;5113520;28;20471;-75
2021/07/16 09:52:10;;;;;;;4.90;4.40;;;21.60;1.00;;;;;;5113990;28;20534;-74
2021/07/16 09:54:39;;;;;;;3.77;3.50;;;21.40;1.00;;;;;;5113572;28;20440;-75
2021/07/16 09:57:06;;;;;;;7.30;3.70;;;21.50;1.00;;;;;;5114099;28;20521;-74
2021/07/16 09:59:33;;;;;;;3.87;3.57;;;21.70;1.00;;;;;;5113530;28;20437;-75
2021/07/16 10:02:01;;;;;;;4.10;3.40;;;22.00;99.90;;;;;;5113677;28;20451;-75
2021/07/16 10:04:33;;;;;;;3.70;3.40;;;;;;;;;;5112792;28;20600;-75
2021/07/16 10:07:00;;;;;;;3.50;3.20;;;;;;;;;;5114016;28;20436;-75
2021/07/16 10:09:27;;;;;;;3.60;3.30;;;;;;;;;;5112319;28;20563;-75
2021/07/16 10:11:57;;;;;;;3.97;3.67;;;22.20;99.90;;;;;;5113646;28;20518;-76
2021/07/16 10:14:25;;;;;;;3.40;3.10;;;23.10;1.00;;;;;;5112804;28;20448;-76
2021/07/16 10:16:53;;;;;;;3.17;2.97;;;22.90;99.90;;;;;;5113163;28;20435;-76
2021/07/16 10:19:21;;;;;;;3.50;3.30;;;23.30;99.90;;;;;;5113009;28;20470;-72
2021/07/16 10:21:49;;;;;;;3.43;3.13;;;23.30;99.90;;;;;;5113559;28;20440;-76
2021/07/16 10:24:20;;;;;;;2.70;2.50;;;23.30;99.90;;;;;;5113470;28;20530;-75
2021/07/16 10:26:50;;;;;;;2.60;2.40;;;23.10;99.90;;;;;;5113499;28;20781;-75
2021/07/16 10:29:34;;;;;;;2.83;2.50;;;23.30;99.90;;;;;;5113499;28;20471;-75
2021/07/16 10:32:01;;;;;;;2.27;2.13;;;23.40;99.90;;;;;;5110896;27;20542;-75
2021/07/16 10:34:33;;;;;;;3.00;2.17;;;23.80;43.80;;;;;;5112246;28;20439;-76
2021/07/16 10:37:02;;;;;;;4.20;2.80;;;23.70;1.00;;;;;;5113333;28;20443;-76
2021/07/16 10:39:51;;;;;;;2.50;2.30;;;23.60;1.00;;;;;;5112196;28;20455;-75
2021/07/16 10:42:46;;;;;;;2.73;2.10;;;23.70;1.00;;;;;;5113288;28;20432;-75
2021/07/16 10:45:14;;;;;;;2.87;2.67;;;23.30;6.00;;;;;;5113272;28;20787;-75
2021/07/16 10:47:49;;;;;;;2.57;2.37;;;23.30;1.00;;;;;;5112396;28;20527;-75
2021/07/16 10:50:36;;;;;;;3.40;2.90;;;23.50;1.00;;;;;;5112905;28;20503;-76
2021/07/16 10:53:04;;;;;;;2.00;1.80;;;23.20;99.90;;;;;;5112851;28;20451;-75
2021/07/16 10:56:02;;;;;;;2.10;1.90;;;23.30;1.00;;;;;;5112124;28;20931;-76
2021/07/16 10:58:30;;;;;;;2.47;1.73;;;23.80;1.00;;;;;;5112306;28;20474;-75
2021/07/16 11:00:59;;;;;;;2.10;1.90;;;23.60;1.00;;;;;;5112481;28;20436;-76
2021/07/16 11:03:39;;;;;;;2.00;1.90;;;23.80;1.00;;;;;;5112054;28;20928;-75
2021/07/16 11:06:06;;;;;;;2.07;1.97;;;;;;;;;;5072036;28;20433;-76
2021/07/16 11:08:51;;;;;;;2.03;1.83;;;;;;;;;;5071534;28;20477;-76
2021/07/16 11:11:19;;;;;;;6.63;2.60;;;;;;;;;;5072165;28;20512;-74
2021/07/16 11:13:47;;;;;;;2.07;1.97;;;;;;;;;;5071605;28;20459;-75
2021/07/16 11:16:34;;;;;;;2.63;2.10;;;;;;;;;;5071776;28;20469;-75
2021/07/16 11:19:06;;;;;;;3.63;2.27;;;24.20;1.00;;;;;;5071757;28;20795;-75
2021/07/16 11:21:58;;;;;;;1.90;1.80;;;24.10;1.00;;;;;;5071110;28;20438;-76
2021/07/16 11:24:27;;;;;;;1.80;1.70;;;24.30;1.00;;;;;;5071503;28;20429;-75
2021/07/16 11:26:56;;;;;;;2.30;2.10;;;24.30;1.00;;;;;;5071974;28;20445;-75
2021/07/16 11:29:24;;;;;;;1.93;1.83;;;24.50;1.00;;;;;;5071595;28;20485;-75
2021/07/16 11:32:02;;;;;;;1.83;1.73;;;24.50;1.00;;;;;;5071751;28;20552;-76
2021/07/16 11:34:30;;;;;;;1.90;1.80;;;24.90;1.00;;;;;;5073527;28;20434;-75
2021/07/16 11:36:57;;;;;;;1.50;1.40;;;25.10;99.90;;;;;;5071807;28;21002;-76
2021/07/16 11:39:28;;;;;;;1.63;1.53;;;24.50;1.00;;;;;;5071855;28;20623;-75
2021/07/16 11:41:55;;;;;;;1.77;1.67;;;24.20;1.00;;;;;;5071392;28;20882;-76
2021/07/16 11:44:27;;;;;;;3.43;2.00;;;24.20;1.00;;;;;;5071732;28;20536;-76
2021/07/16 11:46:56;;;;;;;2.30;1.97;;;24.30;1.00;;;;;;5071742;28;20425;-76
2021/07/16 11:49:27;;;;;;;2.10;1.80;;;24.50;99.90;;;;;;5071601;28;20591;-75
2021/07/16 11:52:01;;;;;;;1.67;1.57;;;24.00;1.00;;;;;;5071350;28;20472;-75
2021/07/16 11:54:32;;;;;;;2.27;1.87;;;24.20;1.00;;;;;;5070774;28;20515;-76
2021/07/16 11:57:00;;;;;;;1.50;1.40;;;24.00;1.00;;;;;;5071662;28;20518;-75
2021/07/16 11:59:29;;;;;;;1.73;1.60;;;24.10;1.00;;;;;;5070758;28;21004;-75
2021/07/16 12:02:10;;;;;;;2.17;1.97;;;23.80;1.00;;;;;;5071469;28;20489;-75
2021/07/16 12:04:38;;;;;;;1.33;1.23;;;23.80;1.00;;;;;;5088925;28;20467;-76
2021/07/16 12:07:06;;;;;;;1.60;1.43;;;24.00;1.00;;;;;;5112027;28;20475;-75
2021/07/16 12:09:35;;;;;;;1.40;1.30;;;24.10;1.00;;;;;;5111449;28;20586;-75
2021/07/16 12:12:03;;;;;;;1.77;1.67;;;24.00;99.90;;;;;;5111982;28;20534;-74
2021/07/16 12:14:42;;;;;;;2.03;1.30;;;24.20;99.90;;;;;;5111228;28;20532;-75
2021/07/16 12:17:09;;;;;;;1.67;1.40;;;24.60;99.90;;;;;;5111853;28;20444;-74
2021/07/16 12:19:36;;;;;;;1.43;1.33;;;24.90;99.90;;;;;;5111117;28;20546;-75
2021/07/16 12:22:05;;;;;;;2.03;1.93;;;25.20;99.90;;;;;;5111767;28;20534;-76
2021/07/16 12:24:33;;;;;;;2.80;1.60;;;25.70;99.90;;;;;;5110964;28;20443;-75
2021/07/16 12:27:05;;;;;;;2.00;1.40;;;25.80;99.90;;;;;;5111224;28;20497;-76
2021/07/16 12:29:32;;;;;;;1.87;1.47;;;25.60;99.90;;;;;;5110920;28;20470;-76
2021/07/16 12:31:59;;;;;;;1.70;1.60;;;25.20;99.90;;;;;;5111461;28;20463;-75
2021/07/16 12:34:28;;;;;;;2.37;1.70;;;25.40;99.90;;;;;;5114249;28;20534;-75
2021/07/16 12:37:08;;;;;;;1.83;1.67;;;25.50;99.90;;;;;;5115425;28;20970;-75
2021/07/16 12:39:35;;;;;;;1.90;1.80;;;25.30;99.90;;;;;;5115057;28;20446;-76
2021/07/16 12:42:14;;;;;;;3.47;1.97;;;25.20;99.90;;;;;;5115384;28;20478;-76
2021/07/16 12:45:02;;;;;;;2.07;1.93;;;24.70;99.90;;;;;;5115114;28;20491;-75
2021/07/16 12:47:30;;;;;;;2.67;2.00;;;24.60;99.90;;;;;;5115543;28;20462;-76
2021/07/16 12:50:07;;;;;;;2.07;1.80;;;;;;;;;;5115330;28;20514;-75
2021/07/16 12:52:35;;;;;;;2.30;2.10;;;24.30;99.90;;;;;;5114879;28;20445;-75
2021/07/16 12:55:14;;;;;;;3.30;2.20;;;23.70;1.00;;;;;;5115420;28;20474;-74
2021/07/16 12:57:41;;;;;;;2.07;1.90;;;23.60;1.00;;;;;;5114415;28;20435;-75